createdAt,value
2022-08-26T00:07:11.865Z,68.24
2022-08-26T00:17:15.267Z,68.03
2022-08-26T00:27:19.974Z,68.99
2022-08-26T00:37:24.185Z,68.99
2022-08-26T00:47:35.316Z,69.37
2022-08-26T00:57:41.126Z,68.55
2022-08-26T01:07:45.844Z,68.19
2022-08-26T01:17:49.873Z,68.55
2022-08-26T01:27:57.824Z,68.64
2022-08-26T01:38:02.295Z,68.71
2022-08-26T01:48:11.634Z,68.83
2022-08-26T01:58:18.513Z,68.90
2022-08-26T02:08:26.108Z,69.53
2022-08-26T02:18:30.112Z,68.23
2022-08-26T02:28:40.490Z,68.49
2022-08-26T02:38:43.633Z,67.95
2022-08-26T02:48:51.104Z,67.92
2022-08-26T02:58:54.409Z,68.44
2022-08-26T03:08:59.193Z,68.00
2022-08-26T03:19:03.521Z,68.69
2022-08-26T03:29:25.651Z,68.42
2022-08-26T03:39:31.562Z,68.59
2022-08-26T03:49:37.168Z,68.15
2022-08-26T03:59:41.317Z,67.88
2022-08-26T04:09:46.179Z,68.36
2022-08-26T04:19:49.776Z,68.13
2022-08-26T04:29:55.265Z,68.56
2022-08-26T04:39:58.746Z,67.71
2022-08-26T04:50:03.339Z,67.99
2022-08-26T05:00:07.753Z,68.12
2022-08-26T05:10:12.487Z,68.24
2022-08-26T05:20:19.227Z,68.70
2022-08-26T05:30:31.451Z,69.02
2022-08-26T05:40:35.475Z,69.03
2022-08-26T05:50:40.959Z,68.83
2022-08-26T06:00:46.303Z,66.27
2022-08-26T06:10:52.623Z,62.00
2022-08-26T06:20:57.874Z,59.89
2022-08-26T06:31:03.917Z,57.34
2022-08-26T06:41:10.705Z,56.28
2022-08-26T06:51:17.970Z,55.63
2022-08-26T07:01:24.455Z,53.42
2022-08-26T07:11:29.210Z,52.76
2022-08-26T07:21:34.059Z,49.86
2022-08-26T07:31:39.418Z,45.05
2022-08-26T07:41:47.327Z,43.09
2022-08-26T07:51:52.229Z,39.22
2022-08-26T08:01:59.130Z,39.56
2022-08-26T08:12:04.446Z,40.08
2022-08-26T08:22:11.356Z,40.22
2022-08-26T08:32:22.513Z,38.83
2022-08-26T08:42:38.618Z,40.40
2022-08-26T08:52:45.638Z,38.92
2022-08-26T09:02:53.824Z,39.16
2022-08-26T09:13:06.130Z,36.85
2022-08-26T09:23:11.116Z,36.47
2022-08-26T09:33:18.573Z,34.35
2022-08-26T09:43:22.070Z,33.06
2022-08-26T09:53:30.405Z,33.70
2022-08-26T10:03:36.259Z,32.54
2022-08-26T10:13:43.955Z,32.79
2022-08-26T10:23:49.490Z,33.00
2022-08-26T10:33:58.683Z,31.97
2022-08-26T10:44:05.094Z,32.15
2022-08-26T10:54:12.360Z,31.00
2022-08-26T11:04:25.015Z,29.85
2022-08-26T11:14:53.087Z,30.99
2022-08-26T11:25:13.414Z,31.39
2022-08-26T11:35:46.527Z,30.79
2022-08-26T11:46:00.615Z,29.91
2022-08-26T11:56:09.631Z,26.54
2022-08-26T12:06:16.784Z,24.93
2022-08-26T12:16:25.539Z,28.82
2022-08-26T12:26:32.869Z,26.55
2022-08-26T12:36:37.874Z,27.71
2022-08-26T12:46:44.716Z,25.83
2022-08-26T12:56:49.878Z,26.13
2022-08-26T13:07:30.763Z,26.20
2022-08-26T13:17:36.066Z,23.07
2022-08-26T13:27:39.299Z,23.23
2022-08-26T13:37:43.881Z,23.90
2022-08-26T13:47:49.506Z,24.26
2022-08-26T13:57:54.285Z,24.28
2022-08-26T14:07:58.359Z,22.11
2022-08-26T14:18:05.837Z,23.18
2022-08-26T14:28:12.054Z,26.47
2022-08-26T14:38:17.576Z,24.60
2022-08-26T14:48:20.811Z,28.02
2022-08-26T14:58:25.387Z,27.26
2022-08-26T15:08:36.609Z,27.27
2022-08-26T15:18:41.584Z,29.61
2022-08-26T15:28:45.167Z,30.44
2022-08-26T15:38:49.783Z,32.49
2022-08-26T15:48:53.546Z,32.48
2022-08-26T15:58:59.487Z,32.84
2022-08-26T16:09:03.201Z,33.23
2022-08-26T16:19:08.262Z,32.76
2022-08-26T16:29:14.097Z,32.14
2022-08-26T16:39:18.670Z,33.17
2022-08-26T16:49:22.406Z,33.53
2022-08-26T16:59:27.430Z,34.42
2022-08-26T17:09:31.463Z,36.01
2022-08-26T17:19:40.847Z,37.69
2022-08-26T17:29:44.974Z,39.14
2022-08-26T17:39:49.541Z,39.89
2022-08-26T17:49:52.862Z,43.02
2022-08-26T17:59:57.438Z,45.21
2022-08-26T18:10:01.591Z,47.83
2022-08-26T18:20:07.239Z,49.27
2022-08-26T18:30:16.667Z,50.17
2022-08-26T18:40:22.046Z,50.00
2022-08-26T18:50:25.370Z,50.51
2022-08-26T19:00:31.579Z,50.94
2022-08-26T19:10:35.849Z,52.58
2022-08-26T19:20:44.723Z,54.60
2022-08-26T19:30:53.183Z,55.22
2022-08-26T19:40:58.882Z,56.76
2022-08-26T19:51:02.018Z,57.97
2022-08-26T20:01:11.670Z,58.42
2022-08-26T20:11:42.731Z,58.38
2022-08-26T20:21:47.274Z,59.22
2022-08-26T20:31:50.539Z,60.32
2022-08-26T20:41:55.160Z,60.09
2022-08-26T20:51:58.410Z,60.21
2022-08-26T21:02:03.020Z,61.52
2022-08-26T21:12:06.438Z,62.37
2022-08-26T21:22:12.353Z,62.75
2022-08-26T21:32:15.837Z,62.67
2022-08-26T21:42:20.512Z,62.67
2022-08-26T21:52:23.877Z,62.44
2022-08-26T22:02:28.666Z,62.30
2022-08-26T22:12:31.840Z,62.87
2022-08-26T22:22:36.486Z,63.07
2022-08-26T22:32:40.423Z,62.83
2022-08-26T22:42:45.066Z,62.96
2022-08-26T22:53:01.378Z,63.24
2022-08-26T23:03:06.259Z,63.47
2022-08-26T23:13:09.480Z,63.29
2022-08-26T23:23:14.086Z,63.89
2022-08-26T23:33:17.536Z,63.00
2022-08-26T23:43:22.229Z,63.89
2022-08-26T23:53:25.382Z,64.04
